sensor_id;sensor_type;location;lat;lon;timestamp;P1;durP1;ratioP1;P2;durP2;ratioP2
26504;SDS011;19493;48.042;7.584;2024-01-30T00:00:06;80.45;;;22.35;;
26504;SDS011;19493;48.042;7.584;2024-01-30T00:02:33;89.03;;;23.17;;
26504;SDS011;19493;48.042;7.584;2024-01-30T00:04:58;80.57;;;21.65;;
26504;SDS011;19493;48.042;7.584;2024-01-30T00:07:24;80.35;;;22.30;;
26504;SDS011;19493;48.042;7.584;2024-01-30T00:09:49;81.75;;;21.90;;
26504;SDS011;19493;48.042;7.584;2024-01-30T00:12:15;83.22;;;20.45;;
26504;SDS011;19493;48.042;7.584;2024-01-30T00:14:41;80.63;;;21.70;;
26504;SDS011;19493;48.042;7.584;2024-01-30T00:17:08;88.40;;;22.23;;
26504;SDS011;19493;48.042;7.584;2024-01-30T00:19:34;92.70;;;21.35;;
26504;SDS011;19493;48.042;7.584;2024-01-30T00:21:59;96.03;;;23.83;;
26504;SDS011;19493;48.042;7.584;2024-01-30T00:24:25;86.32;;;21.70;;
26504;SDS011;19493;48.042;7.584;2024-01-30T00:26:50;86.07;;;21.02;;
26504;SDS011;19493;48.042;7.584;2024-01-30T00:29:16;68.38;;;19.40;;
26504;SDS011;19493;48.042;7.584;2024-01-30T00:31:44;72.10;;;20.15;;
26504;SDS011;19493;48.042;7.584;2024-01-30T00:34:10;80.55;;;22.33;;
26504;SDS011;19493;48.042;7.584;2024-01-30T00:36:36;73.25;;;20.88;;
26504;SDS011;19493;48.042;7.584;2024-01-30T00:39:02;75.93;;;21.65;;
26504;SDS011;19493;48.042;7.584;2024-01-30T00:41:31;81.20;;;21.70;;
26504;SDS011;19493;48.042;7.584;2024-01-30T00:43:57;84.65;;;22.63;;
26504;SDS011;19493;48.042;7.584;2024-01-30T00:46:22;81.40;;;22.52;;
26504;SDS011;19493;48.042;7.584;2024-01-30T00:48:48;72.38;;;21.58;;
26504;SDS011;19493;48.042;7.584;2024-01-30T00:51:13;76.53;;;19.77;;
26504;SDS011;19493;48.042;7.584;2024-01-30T00:53:39;88.97;;;23.10;;
26504;SDS011;19493;48.042;7.584;2024-01-30T00:56:06;95.32;;;23.05;;
26504;SDS011;19493;48.042;7.584;2024-01-30T00:58:32;77.55;;;22.48;;
26504;SDS011;19493;48.042;7.584;2024-01-30T01:00:58;79.03;;;22.83;;
26504;SDS011;19493;48.042;7.584;2024-01-30T01:03:24;85.97;;;21.95;;
26504;SDS011;19493;48.042;7.584;2024-01-30T01:05:49;82.75;;;21.92;;
26504;SDS011;19493;48.042;7.584;2024-01-30T01:08:15;74.22;;;21.90;;
26504;SDS011;19493;48.042;7.584;2024-01-30T01:10:40;98.40;;;24.17;;
26504;SDS011;19493;48.042;7.584;2024-01-30T01:13:06;105.82;;;24.67;;
26504;SDS011;19493;48.042;7.584;2024-01-30T01:15:31;92.28;;;24.27;;
26504;SDS011;19493;48.042;7.584;2024-01-30T01:17:57;106.93;;;26.42;;
26504;SDS011;19493;48.042;7.584;2024-01-30T01:20:22;86.63;;;23.65;;
26504;SDS011;19493;48.042;7.584;2024-01-30T01:22:48;104.07;;;25.40;;
26504;SDS011;19493;48.042;7.584;2024-01-30T01:25:13;98.20;;;23.73;;
26504;SDS011;19493;48.042;7.584;2024-01-30T01:27:39;97.18;;;22.85;;
26504;SDS011;19493;48.042;7.584;2024-01-30T01:30:08;82.63;;;21.55;;
26504;SDS011;19493;48.042;7.584;2024-01-30T01:32:34;74.82;;;18.95;;
26504;SDS011;19493;48.042;7.584;2024-01-30T01:35:00;71.07;;;18.88;;
26504;SDS011;19493;48.042;7.584;2024-01-30T01:37:26;65.50;;;17.13;;
26504;SDS011;19493;48.042;7.584;2024-01-30T01:39:51;60.60;;;17.23;;
26504;SDS011;19493;48.042;7.584;2024-01-30T01:42:17;70.75;;;19.35;;
26504;SDS011;19493;48.042;7.584;2024-01-30T01:44:43;83.13;;;22.85;;
26504;SDS011;19493;48.042;7.584;2024-01-30T01:47:08;79.72;;;20.80;;
26504;SDS011;19493;48.042;7.584;2024-01-30T01:49:34;73.57;;;19.45;;
26504;SDS011;19493;48.042;7.584;2024-01-30T01:51:59;75.55;;;19.65;;
26504;SDS011;19493;48.042;7.584;2024-01-30T01:54:25;90.13;;;22.73;;
26504;SDS011;19493;48.042;7.584;2024-01-30T01:56:53;90.97;;;22.35;;
26504;SDS011;19493;48.042;7.584;2024-01-30T01:59:19;89.80;;;23.00;;
26504;SDS011;19493;48.042;7.584;2024-01-30T02:01:45;100.53;;;23.25;;
26504;SDS011;19493;48.042;7.584;2024-01-30T02:04:14;95.10;;;23.38;;
26504;SDS011;19493;48.042;7.584;2024-01-30T02:06:40;90.55;;;22.38;;
26504;SDS011;19493;48.042;7.584;2024-01-30T02:09:06;86.65;;;19.75;;
26504;SDS011;19493;48.042;7.584;2024-01-30T02:11:32;83.28;;;20.30;;
26504;SDS011;19493;48.042;7.584;2024-01-30T02:14:01;86.03;;;21.20;;
26504;SDS011;19493;48.042;7.584;2024-01-30T02:16:28;71.93;;;19.13;;
26504;SDS011;19493;48.042;7.584;2024-01-30T02:18:55;68.13;;;17.95;;
26504;SDS011;19493;48.042;7.584;2024-01-30T02:21:20;74.22;;;19.90;;
26504;SDS011;19493;48.042;7.584;2024-01-30T02:23:49;69.72;;;17.90;;
26504;SDS011;19493;48.042;7.584;2024-01-30T02:26:15;67.18;;;17.55;;
26504;SDS011;19493;48.042;7.584;2024-01-30T02:28:41;66.10;;;16.83;;
26504;SDS011;19493;48.042;7.584;2024-01-30T02:31:06;62.42;;;18.13;;
26504;SDS011;19493;48.042;7.584;2024-01-30T02:33:32;59.88;;;17.30;;
26504;SDS011;19493;48.042;7.584;2024-01-30T02:35:57;61.03;;;15.52;;
26504;SDS011;19493;48.042;7.584;2024-01-30T02:38:23;64.93;;;15.40;;
26504;SDS011;19493;48.042;7.584;2024-01-30T02:40:49;50.35;;;15.88;;
26504;SDS011;19493;48.042;7.584;2024-01-30T02:43:15;61.55;;;16.80;;
26504;SDS011;19493;48.042;7.584;2024-01-30T02:45:41;62.83;;;17.25;;
26504;SDS011;19493;48.042;7.584;2024-01-30T02:48:07;61.50;;;15.38;;
26504;SDS011;19493;48.042;7.584;2024-01-30T02:50:33;61.72;;;16.42;;
26504;SDS011;19493;48.042;7.584;2024-01-30T02:52:59;57.40;;;15.00;;
26504;SDS011;19493;48.042;7.584;2024-01-30T02:55:24;61.78;;;15.57;;
26504;SDS011;19493;48.042;7.584;2024-01-30T02:57:50;61.05;;;15.23;;
26504;SDS011;19493;48.042;7.584;2024-01-30T03:00:15;51.05;;;13.85;;
26504;SDS011;19493;48.042;7.584;2024-01-30T03:02:41;50.33;;;15.48;;
26504;SDS011;19493;48.042;7.584;2024-01-30T03:05:07;56.60;;;15.05;;
26504;SDS011;19493;48.042;7.584;2024-01-30T03:07:33;42.10;;;14.70;;
26504;SDS011;19493;48.042;7.584;2024-01-30T03:09:58;51.90;;;16.25;;
26504;SDS011;19493;48.042;7.584;2024-01-30T03:12:24;62.17;;;15.10;;
26504;SDS011;19493;48.042;7.584;2024-01-30T03:14:49;64.90;;;15.85;;
26504;SDS011;19493;48.042;7.584;2024-01-30T03:17:15;54.55;;;16.48;;
26504;SDS011;19493;48.042;7.584;2024-01-30T03:19:41;63.22;;;16.85;;
26504;SDS011;19493;48.042;7.584;2024-01-30T03:22:06;65.03;;;17.88;;
26504;SDS011;19493;48.042;7.584;2024-01-30T03:24:32;57.38;;;17.08;;
26504;SDS011;19493;48.042;7.584;2024-01-30T03:26:58;67.43;;;17.48;;
26504;SDS011;19493;48.042;7.584;2024-01-30T03:29:23;59.47;;;17.05;;
26504;SDS011;19493;48.042;7.584;2024-01-30T03:31:49;57.33;;;16.13;;
26504;SDS011;19493;48.042;7.584;2024-01-30T03:34:15;56.33;;;16.20;;
26504;SDS011;19493;48.042;7.584;2024-01-30T03:36:40;60.13;;;16.35;;
26504;SDS011;19493;48.042;7.584;2024-01-30T03:39:06;72.45;;;18.33;;
26504;SDS011;19493;48.042;7.584;2024-01-30T03:41:31;50.90;;;16.42;;
26504;SDS011;19493;48.042;7.584;2024-01-30T03:43:57;71.43;;;17.10;;
26504;SDS011;19493;48.042;7.584;2024-01-30T03:46:24;55.17;;;16.65;;
26504;SDS011;19493;48.042;7.584;2024-01-30T03:48:49;59.05;;;16.10;;
26504;SDS011;19493;48.042;7.584;2024-01-30T03:51:15;64.38;;;15.80;;
26504;SDS011;19493;48.042;7.584;2024-01-30T03:53:41;55.58;;;15.88;;
26504;SDS011;19493;48.042;7.584;2024-01-30T03:56:07;64.93;;;16.17;;
26504;SDS011;19493;48.042;7.584;2024-01-30T03:58:33;66.45;;;16.20;;
26504;SDS011;19493;48.042;7.584;2024-01-30T04:00:59;71.45;;;17.25;;
26504;SDS011;19493;48.042;7.584;2024-01-30T04:03:25;55.25;;;17.52;;
26504;SDS011;19493;48.042;7.584;2024-01-30T04:05:51;59.00;;;15.73;;
26504;SDS011;19493;48.042;7.584;2024-01-30T04:08:17;59.15;;;15.50;;
26504;SDS011;19493;48.042;7.584;2024-01-30T04:10:43;58.83;;;15.63;;
26504;SDS011;19493;48.042;7.584;2024-01-30T04:13:08;58.35;;;14.90;;
26504;SDS011;19493;48.042;7.584;2024-01-30T04:15:34;56.92;;;15.63;;
26504;SDS011;19493;48.042;7.584;2024-01-30T04:18:00;55.50;;;15.18;;
26504;SDS011;19493;48.042;7.584;2024-01-30T04:20:25;63.53;;;16.00;;
26504;SDS011;19493;48.042;7.584;2024-01-30T04:22:51;52.05;;;15.07;;
26504;SDS011;19493;48.042;7.584;2024-01-30T04:25:17;75.40;;;18.80;;
26504;SDS011;19493;48.042;7.584;2024-01-30T04:27:42;60.85;;;16.02;;
26504;SDS011;19493;48.042;7.584;2024-01-30T04:30:08;51.72;;;15.85;;
26504;SDS011;19493;48.042;7.584;2024-01-30T04:32:35;58.97;;;15.40;;
26504;SDS011;19493;48.042;7.584;2024-01-30T04:35:01;56.65;;;17.13;;
26504;SDS011;19493;48.042;7.584;2024-01-30T04:37:27;56.35;;;16.33;;
26504;SDS011;19493;48.042;7.584;2024-01-30T04:39:52;52.70;;;15.30;;
26504;SDS011;19493;48.042;7.584;2024-01-30T04:42:18;50.75;;;15.77;;
26504;SDS011;19493;48.042;7.584;2024-01-30T04:44:43;64.90;;;16.65;;
26504;SDS011;19493;48.042;7.584;2024-01-30T04:47:09;55.65;;;15.20;;
26504;SDS011;19493;48.042;7.584;2024-01-30T04:49:36;50.90;;;15.00;;
26504;SDS011;19493;48.042;7.584;2024-01-30T04:52:06;55.72;;;15.55;;
26504;SDS011;19493;48.042;7.584;2024-01-30T04:54:32;65.30;;;16.13;;
26504;SDS011;19493;48.042;7.584;2024-01-30T04:56:58;59.90;;;16.67;;
26504;SDS011;19493;48.042;7.584;2024-01-30T04:59:24;52.78;;;16.25;;
26504;SDS011;19493;48.042;7.584;2024-01-30T05:01:49;59.13;;;16.00;;
26504;SDS011;19493;48.042;7.584;2024-01-30T05:04:15;49.58;;;14.48;;
26504;SDS011;19493;48.042;7.584;2024-01-30T05:06:40;56.13;;;15.35;;
26504;SDS011;19493;48.042;7.584;2024-01-30T05:09:06;58.10;;;17.08;;
26504;SDS011;19493;48.042;7.584;2024-01-30T05:11:36;50.00;;;15.43;;
26504;SDS011;19493;48.042;7.584;2024-01-30T05:14:03;54.03;;;15.57;;
26504;SDS011;19493;48.042;7.584;2024-01-30T05:16:28;52.55;;;15.45;;
26504;SDS011;19493;48.042;7.584;2024-01-30T05:18:54;48.75;;;14.45;;
26504;SDS011;19493;48.042;7.584;2024-01-30T05:21:20;53.78;;;14.18;;
26504;SDS011;19493;48.042;7.584;2024-01-30T05:23:45;57.65;;;16.80;;
26504;SDS011;19493;48.042;7.584;2024-01-30T05:26:11;59.50;;;16.42;;
26504;SDS011;19493;48.042;7.584;2024-01-30T05:28:36;67.82;;;16.92;;
26504;SDS011;19493;48.042;7.584;2024-01-30T05:31:02;51.97;;;14.30;;
26504;SDS011;19493;48.042;7.584;2024-01-30T05:33:28;56.08;;;14.52;;
26504;SDS011;19493;48.042;7.584;2024-01-30T05:35:53;44.10;;;14.45;;
26504;SDS011;19493;48.042;7.584;2024-01-30T05:38:19;59.22;;;15.85;;
26504;SDS011;19493;48.042;7.584;2024-01-30T05:40:45;67.22;;;15.50;;
26504;SDS011;19493;48.042;7.584;2024-01-30T05:43:11;54.58;;;15.45;;
26504;SDS011;19493;48.042;7.584;2024-01-30T05:45:37;64.28;;;17.48;;
26504;SDS011;19493;48.042;7.584;2024-01-30T05:48:02;59.72;;;14.98;;
26504;SDS011;19493;48.042;7.584;2024-01-30T05:50:28;52.70;;;14.98;;
26504;SDS011;19493;48.042;7.584;2024-01-30T05:52:54;51.75;;;15.18;;
26504;SDS011;19493;48.042;7.584;2024-01-30T05:55:20;45.65;;;14.90;;
26504;SDS011;19493;48.042;7.584;2024-01-30T05:57:45;59.42;;;17.25;;
26504;SDS011;19493;48.042;7.584;2024-01-30T06:00:11;70.78;;;17.67;;
26504;SDS011;19493;48.042;7.584;2024-01-30T06:02:37;71.82;;;18.58;;
26504;SDS011;19493;48.042;7.584;2024-01-30T06:05:03;51.08;;;17.45;;
26504;SDS011;19493;48.042;7.584;2024-01-30T06:07:29;58.53;;;17.92;;
26504;SDS011;19493;48.042;7.584;2024-01-30T06:09:54;68.35;;;17.63;;
26504;SDS011;19493;48.042;7.584;2024-01-30T06:12:20;65.07;;;17.20;;
26504;SDS011;19493;48.042;7.584;2024-01-30T06:14:45;73.30;;;19.38;;
26504;SDS011;19493;48.042;7.584;2024-01-30T06:17:11;75.32;;;19.10;;
26504;SDS011;19493;48.042;7.584;2024-01-30T06:19:37;56.72;;;16.77;;
26504;SDS011;19493;48.042;7.584;2024-01-30T06:22:06;109.38;;;26.90;;
26504;SDS011;19493;48.042;7.584;2024-01-30T06:24:32;69.60;;;18.55;;
26504;SDS011;19493;48.042;7.584;2024-01-30T06:26:58;85.68;;;18.77;;
26504;SDS011;19493;48.042;7.584;2024-01-30T06:29:24;76.88;;;20.45;;
26504;SDS011;19493;48.042;7.584;2024-01-30T06:31:51;74.78;;;20.20;;
26504;SDS011;19493;48.042;7.584;2024-01-30T06:34:17;65.68;;;18.92;;
26504;SDS011;19493;48.042;7.584;2024-01-30T06:36:43;59.63;;;17.00;;
26504;SDS011;19493;48.042;7.584;2024-01-30T06:39:08;66.55;;;17.35;;
26504;SDS011;19493;48.042;7.584;2024-01-30T06:41:34;63.75;;;19.02;;
26504;SDS011;19493;48.042;7.584;2024-01-30T06:43:59;71.28;;;18.42;;
26504;SDS011;19493;48.042;7.584;2024-01-30T06:46:26;128.02;;;31.33;;
26504;SDS011;19493;48.042;7.584;2024-01-30T06:48:52;62.80;;;20.08;;
26504;SDS011;19493;48.042;7.584;2024-01-30T06:51:18;70.68;;;19.38;;
26504;SDS011;19493;48.042;7.584;2024-01-30T06:53:43;83.03;;;19.20;;
26504;SDS011;19493;48.042;7.584;2024-01-30T06:56:09;70.50;;;20.30;;
26504;SDS011;19493;48.042;7.584;2024-01-30T06:58:34;64.75;;;17.27;;
26504;SDS011;19493;48.042;7.584;2024-01-30T07:01:00;63.22;;;16.15;;
26504;SDS011;19493;48.042;7.584;2024-01-30T07:03:25;46.97;;;11.77;;
26504;SDS011;19493;48.042;7.584;2024-01-30T07:05:51;38.20;;;11.40;;
26504;SDS011;19493;48.042;7.584;2024-01-30T07:08:17;42.00;;;10.60;;
26504;SDS011;19493;48.042;7.584;2024-01-30T07:10:45;35.58;;;9.70;;
26504;SDS011;19493;48.042;7.584;2024-01-30T07:13:12;32.40;;;9.65;;
26504;SDS011;19493;48.042;7.584;2024-01-30T07:15:38;39.80;;;9.90;;
26504;SDS011;19493;48.042;7.584;2024-01-30T07:18:04;54.83;;;15.80;;
26504;SDS011;19493;48.042;7.584;2024-01-30T07:20:30;39.65;;;11.20;;
26504;SDS011;19493;48.042;7.584;2024-01-30T07:22:57;45.33;;;11.32;;
26504;SDS011;19493;48.042;7.584;2024-01-30T07:25:23;52.65;;;12.75;;
26504;SDS011;19493;48.042;7.584;2024-01-30T07:27:52;49.60;;;13.68;;
26504;SDS011;19493;48.042;7.584;2024-01-30T07:30:17;41.15;;;12.43;;
26504;SDS011;19493;48.042;7.584;2024-01-30T07:32:44;44.08;;;13.50;;
26504;SDS011;19493;48.042;7.584;2024-01-30T07:35:09;54.53;;;13.35;;
26504;SDS011;19493;48.042;7.584;2024-01-30T07:37:36;42.67;;;13.52;;
26504;SDS011;19493;48.042;7.584;2024-01-30T07:40:02;47.75;;;12.82;;
26504;SDS011;19493;48.042;7.584;2024-01-30T07:42:28;51.15;;;13.60;;
26504;SDS011;19493;48.042;7.584;2024-01-30T07:44:53;39.40;;;12.55;;
26504;SDS011;19493;48.042;7.584;2024-01-30T07:47:19;42.63;;;12.63;;
26504;SDS011;19493;48.042;7.584;2024-01-30T07:49:45;41.08;;;11.93;;
26504;SDS011;19493;48.042;7.584;2024-01-30T07:52:10;43.40;;;12.20;;
26504;SDS011;19493;48.042;7.584;2024-01-30T07:54:36;38.92;;;10.95;;
26504;SDS011;19493;48.042;7.584;2024-01-30T07:57:05;43.08;;;12.63;;
26504;SDS011;19493;48.042;7.584;2024-01-30T07:59:30;44.63;;;12.20;;
26504;SDS011;19493;48.042;7.584;2024-01-30T08:01:56;45.53;;;11.27;;
26504;SDS011;19493;48.042;7.584;2024-01-30T08:04:21;40.13;;;11.65;;
26504;SDS011;19493;48.042;7.584;2024-01-30T08:06:47;43.95;;;12.18;;
26504;SDS011;19493;48.042;7.584;2024-01-30T08:09:12;31.40;;;11.25;;
26504;SDS011;19493;48.042;7.584;2024-01-30T08:11:39;45.42;;;12.82;;
26504;SDS011;19493;48.042;7.584;2024-01-30T08:14:05;42.97;;;11.90;;
26504;SDS011;19493;48.042;7.584;2024-01-30T08:16:30;33.28;;;10.82;;
26504;SDS011;19493;48.042;7.584;2024-01-30T08:18:56;29.48;;;9.77;;
26504;SDS011;19493;48.042;7.584;2024-01-30T08:21:22;37.42;;;10.18;;
26504;SDS011;19493;48.042;7.584;2024-01-30T08:23:48;32.80;;;9.55;;
26504;SDS011;19493;48.042;7.584;2024-01-30T08:26:13;43.80;;;10.48;;
26504;SDS011;19493;48.042;7.584;2024-01-30T08:28:39;39.47;;;10.63;;
26504;SDS011;19493;48.042;7.584;2024-01-30T08:31:05;40.17;;;10.52;;
26504;SDS011;19493;48.042;7.584;2024-01-30T08:33:30;39.75;;;11.95;;
26504;SDS011;19493;48.042;7.584;2024-01-30T08:35:56;43.40;;;12.20;;
26504;SDS011;19493;48.042;7.584;2024-01-30T08:38:21;33.50;;;10.38;;
26504;SDS011;19493;48.042;7.584;2024-01-30T08:40:47;33.63;;;10.95;;
26504;SDS011;19493;48.042;7.584;2024-01-30T08:43:12;35.92;;;10.45;;
26504;SDS011;19493;48.042;7.584;2024-01-30T08:45:38;46.72;;;11.60;;
26504;SDS011;19493;48.042;7.584;2024-01-30T08:48:03;39.30;;;10.23;;
26504;SDS011;19493;48.042;7.584;2024-01-30T08:50:29;29.65;;;10.30;;
26504;SDS011;19493;48.042;7.584;2024-01-30T08:52:55;35.72;;;11.02;;
26504;SDS011;19493;48.042;7.584;2024-01-30T08:55:21;35.60;;;10.25;;
26504;SDS011;19493;48.042;7.584;2024-01-30T08:57:47;38.80;;;11.05;;
26504;SDS011;19493;48.042;7.584;2024-01-30T09:00:12;40.80;;;10.35;;
26504;SDS011;19493;48.042;7.584;2024-01-30T09:02:38;32.20;;;8.13;;
26504;SDS011;19493;48.042;7.584;2024-01-30T09:05:04;24.77;;;6.63;;
26504;SDS011;19493;48.042;7.584;2024-01-30T09:07:29;25.48;;;6.35;;
26504;SDS011;19493;48.042;7.584;2024-01-30T09:09:55;20.27;;;6.38;;
26504;SDS011;19493;48.042;7.584;2024-01-30T09:12:21;20.95;;;5.68;;
26504;SDS011;19493;48.042;7.584;2024-01-30T09:14:47;18.92;;;5.95;;
26504;SDS011;19493;48.042;7.584;2024-01-30T09:17:12;20.58;;;5.88;;
26504;SDS011;19493;48.042;7.584;2024-01-30T09:19:38;17.13;;;6.18;;
26504;SDS011;19493;48.042;7.584;2024-01-30T09:22:03;37.33;;;8.68;;
26504;SDS011;19493;48.042;7.584;2024-01-30T09:24:29;24.77;;;6.82;;
26504;SDS011;19493;48.042;7.584;2024-01-30T09:26:55;40.00;;;11.80;;
26504;SDS011;19493;48.042;7.584;2024-01-30T09:29:20;31.33;;;8.15;;
26504;SDS011;19493;48.042;7.584;2024-01-30T09:31:46;17.95;;;5.53;;
26504;SDS011;19493;48.042;7.584;2024-01-30T09:34:12;19.40;;;4.65;;
26504;SDS011;19493;48.042;7.584;2024-01-30T09:36:38;16.23;;;5.00;;
26504;SDS011;19493;48.042;7.584;2024-01-30T09:39:04;14.95;;;4.55;;
26504;SDS011;19493;48.042;7.584;2024-01-30T09:41:32;27.15;;;5.93;;
26504;SDS011;19493;48.042;7.584;2024-01-30T09:43:59;19.45;;;6.00;;
26504;SDS011;19493;48.042;7.584;2024-01-30T09:46:27;17.75;;;5.25;;
26504;SDS011;19493;48.042;7.584;2024-01-30T09:48:55;26.52;;;6.90;;
26504;SDS011;19493;48.042;7.584;2024-01-30T09:51:22;19.52;;;5.47;;
26504;SDS011;19493;48.042;7.584;2024-01-30T09:53:49;15.75;;;4.53;;
26504;SDS011;19493;48.042;7.584;2024-01-30T09:56:14;18.33;;;5.22;;
26504;SDS011;19493;48.042;7.584;2024-01-30T09:58:41;23.65;;;4.72;;
26504;SDS011;19493;48.042;7.584;2024-01-30T10:01:07;14.45;;;5.00;;
26504;SDS011;19493;48.042;7.584;2024-01-30T10:03:32;16.52;;;4.32;;
26504;SDS011;19493;48.042;7.584;2024-01-30T10:05:58;18.60;;;5.05;;
26504;SDS011;19493;48.042;7.584;2024-01-30T10:08:25;13.15;;;4.22;;
26504;SDS011;19493;48.042;7.584;2024-01-30T10:10:51;16.65;;;4.25;;
26504;SDS011;19493;48.042;7.584;2024-01-30T10:13:17;18.40;;;4.85;;
26504;SDS011;19493;48.042;7.584;2024-01-30T10:15:43;22.38;;;4.60;;
26504;SDS011;19493;48.042;7.584;2024-01-30T10:18:10;14.10;;;4.05;;
26504;SDS011;19493;48.042;7.584;2024-01-30T10:20:36;15.25;;;4.22;;
26504;SDS011;19493;48.042;7.584;2024-01-30T10:23:02;12.48;;;4.05;;
26504;SDS011;19493;48.042;7.584;2024-01-30T10:25:28;14.85;;;4.10;;
26504;SDS011;19493;48.042;7.584;2024-01-30T10:27:55;13.32;;;4.45;;
26504;SDS011;19493;48.042;7.584;2024-01-30T10:30:21;17.50;;;5.45;;
26504;SDS011;19493;48.042;7.584;2024-01-30T10:32:47;11.85;;;4.10;;
26504;SDS011;19493;48.042;7.584;2024-01-30T10:35:13;16.23;;;3.38;;
26504;SDS011;19493;48.042;7.584;2024-01-30T10:37:39;15.30;;;4.20;;
26504;SDS011;19493;48.042;7.584;2024-01-30T10:40:04;12.65;;;4.20;;
26504;SDS011;19493;48.042;7.584;2024-01-30T10:42:32;15.05;;;4.97;;
26504;SDS011;19493;48.042;7.584;2024-01-30T10:47:33;16.35;;;4.63;;
26504;SDS011;19493;48.042;7.584;2024-01-30T10:50:01;9.73;;;3.88;;
26504;SDS011;19493;48.042;7.584;2024-01-30T10:52:28;14.55;;;4.63;;
26504;SDS011;19493;48.042;7.584;2024-01-30T10:54:55;14.40;;;4.53;;
26504;SDS011;19493;48.042;7.584;2024-01-30T10:57:22;14.73;;;4.55;;
26504;SDS011;19493;48.042;7.584;2024-01-30T10:59:49;20.38;;;4.88;;
26504;SDS011;19493;48.042;7.584;2024-01-30T11:02:17;21.73;;;4.40;;
26504;SDS011;19493;48.042;7.584;2024-01-30T11:04:44;13.45;;;4.57;;
26504;SDS011;19493;48.042;7.584;2024-01-30T11:07:17;17.15;;;4.75;;
26504;SDS011;19493;48.042;7.584;2024-01-30T11:12:16;15.38;;;4.65;;
26504;SDS011;19493;48.042;7.584;2024-01-30T11:14:41;14.10;;;4.32;;
26504;SDS011;19493;48.042;7.584;2024-01-30T11:17:08;13.70;;;3.95;;
26504;SDS011;19493;48.042;7.584;2024-01-30T11:19:37;18.73;;;4.45;;
26504;SDS011;19493;48.042;7.584;2024-01-30T11:22:03;12.77;;;4.82;;
26504;SDS011;19493;48.042;7.584;2024-01-30T11:24:31;25.05;;;5.40;;
26504;SDS011;19493;48.042;7.584;2024-01-30T11:27:08;16.90;;;4.60;;
26504;SDS011;19493;48.042;7.584;2024-01-30T11:29:35;14.77;;;4.60;;
26504;SDS011;19493;48.042;7.584;2024-01-30T11:32:01;13.32;;;4.40;;
26504;SDS011;19493;48.042;7.584;2024-01-30T11:34:27;21.27;;;5.38;;
26504;SDS011;19493;48.042;7.584;2024-01-30T11:36:55;21.65;;;5.40;;
26504;SDS011;19493;48.042;7.584;2024-01-30T11:39:26;21.00;;;4.95;;
26504;SDS011;19493;48.042;7.584;2024-01-30T11:41:52;16.50;;;5.55;;
26504;SDS011;19493;48.042;7.584;2024-01-30T11:44:21;17.40;;;5.60;;
26504;SDS011;19493;48.042;7.584;2024-01-30T11:46:48;15.15;;;5.45;;
26504;SDS011;19493;48.042;7.584;2024-01-30T11:49:14;19.77;;;5.20;;
26504;SDS011;19493;48.042;7.584;2024-01-30T11:51:41;21.30;;;5.93;;
26504;SDS011;19493;48.042;7.584;2024-01-30T11:54:07;19.10;;;5.82;;
26504;SDS011;19493;48.042;7.584;2024-01-30T11:56:33;16.33;;;5.32;;
26504;SDS011;19493;48.042;7.584;2024-01-30T11:58:58;19.25;;;4.93;;
26504;SDS011;19493;48.042;7.584;2024-01-30T12:01:25;14.85;;;5.38;;
26504;SDS011;19493;48.042;7.584;2024-01-30T12:03:51;16.08;;;4.72;;
26504;SDS011;19493;48.042;7.584;2024-01-30T12:06:17;22.55;;;5.50;;
26504;SDS011;19493;48.042;7.584;2024-01-30T12:08:54;21.13;;;6.03;;
26504;SDS011;19493;48.042;7.584;2024-01-30T12:11:29;18.88;;;5.40;;
26504;SDS011;19493;48.042;7.584;2024-01-30T12:13:55;17.52;;;5.50;;
26504;SDS011;19493;48.042;7.584;2024-01-30T12:16:21;23.77;;;5.60;;
26504;SDS011;19493;48.042;7.584;2024-01-30T12:18:47;20.55;;;5.65;;
26504;SDS011;19493;48.042;7.584;2024-01-30T12:21:15;20.08;;;5.65;;
26504;SDS011;19493;48.042;7.584;2024-01-30T12:23:41;18.75;;;6.43;;
26504;SDS011;19493;48.042;7.584;2024-01-30T12:26:07;23.65;;;6.80;;
26504;SDS011;19493;48.042;7.584;2024-01-30T12:28:33;23.95;;;6.55;;
26504;SDS011;19493;48.042;7.584;2024-01-30T12:31:02;18.17;;;6.63;;
26504;SDS011;19493;48.042;7.584;2024-01-30T12:33:28;21.50;;;6.03;;
26504;SDS011;19493;48.042;7.584;2024-01-30T12:35:55;19.77;;;6.32;;
26504;SDS011;19493;48.042;7.584;2024-01-30T12:38:21;23.30;;;5.82;;
26504;SDS011;19493;48.042;7.584;2024-01-30T12:40:48;18.52;;;5.40;;
26504;SDS011;19493;48.042;7.584;2024-01-30T12:43:14;29.83;;;6.05;;
26504;SDS011;19493;48.042;7.584;2024-01-30T12:45:41;24.00;;;5.20;;
26504;SDS011;19493;48.042;7.584;2024-01-30T12:48:06;18.42;;;5.60;;
26504;SDS011;19493;48.042;7.584;2024-01-30T12:50:32;20.23;;;5.53;;
26504;SDS011;19493;48.042;7.584;2024-01-30T12:52:58;16.20;;;5.00;;
26504;SDS011;19493;48.042;7.584;2024-01-30T12:55:23;20.48;;;5.18;;
26504;SDS011;19493;48.042;7.584;2024-01-30T12:57:49;16.42;;;4.90;;
26504;SDS011;19493;48.042;7.584;2024-01-30T13:00:15;24.27;;;5.75;;
26504;SDS011;19493;48.042;7.584;2024-01-30T13:02:42;16.45;;;4.78;;
26504;SDS011;19493;48.042;7.584;2024-01-30T13:05:09;18.52;;;5.75;;
26504;SDS011;19493;48.042;7.584;2024-01-30T13:07:35;19.08;;;6.07;;
26504;SDS011;19493;48.042;7.584;2024-01-30T13:10:01;17.55;;;5.15;;
26504;SDS011;19493;48.042;7.584;2024-01-30T13:12:28;18.45;;;5.28;;
26504;SDS011;19493;48.042;7.584;2024-01-30T13:14:54;14.27;;;5.28;;
26504;SDS011;19493;48.042;7.584;2024-01-30T13:17:20;14.75;;;5.60;;
26504;SDS011;19493;48.042;7.584;2024-01-30T13:19:46;21.38;;;6.70;;
26504;SDS011;19493;48.042;7.584;2024-01-30T13:22:13;19.20;;;5.28;;
26504;SDS011;19493;48.042;7.584;2024-01-30T13:24:40;16.38;;;4.95;;
26504;SDS011;19493;48.042;7.584;2024-01-30T13:27:06;18.65;;;6.00;;
26504;SDS011;19493;48.042;7.584;2024-01-30T13:29:32;13.20;;;4.88;;
26504;SDS011;19493;48.042;7.584;2024-01-30T13:31:58;20.35;;;5.28;;
26504;SDS011;19493;48.042;7.584;2024-01-30T13:34:23;19.83;;;6.32;;
26504;SDS011;19493;48.042;7.584;2024-01-30T13:36:49;25.58;;;7.68;;
26504;SDS011;19493;48.042;7.584;2024-01-30T13:39:15;19.52;;;6.63;;
26504;SDS011;19493;48.042;7.584;2024-01-30T13:41:41;18.55;;;5.93;;
26504;SDS011;19493;48.042;7.584;2024-01-30T13:44:07;22.60;;;6.38;;
26504;SDS011;19493;48.042;7.584;2024-01-30T13:46:34;23.92;;;5.70;;
26504;SDS011;19493;48.042;7.584;2024-01-30T13:49:00;10.70;;;4.43;;
26504;SDS011;19493;48.042;7.584;2024-01-30T13:51:26;20.20;;;5.95;;
26504;SDS011;19493;48.042;7.584;2024-01-30T13:53:51;18.75;;;4.80;;
26504;SDS011;19493;48.042;7.584;2024-01-30T13:56:17;19.35;;;5.72;;
26504;SDS011;19493;48.042;7.584;2024-01-30T13:58:44;18.80;;;5.35;;
26504;SDS011;19493;48.042;7.584;2024-01-30T14:01:09;17.52;;;5.55;;
26504;SDS011;19493;48.042;7.584;2024-01-30T14:03:35;18.35;;;5.10;;
26504;SDS011;19493;48.042;7.584;2024-01-30T14:06:00;18.60;;;5.47;;
26504;SDS011;19493;48.042;7.584;2024-01-30T14:08:26;48.38;;;13.30;;
26504;SDS011;19493;48.042;7.584;2024-01-30T14:10:53;21.63;;;5.43;;
26504;SDS011;19493;48.042;7.584;2024-01-30T14:13:21;22.30;;;6.18;;
26504;SDS011;19493;48.042;7.584;2024-01-30T14:15:47;29.58;;;9.65;;
26504;SDS011;19493;48.042;7.584;2024-01-30T14:18:14;51.42;;;12.02;;
26504;SDS011;19493;48.042;7.584;2024-01-30T14:20:40;40.22;;;9.07;;
26504;SDS011;19493;48.042;7.584;2024-01-30T14:23:05;31.75;;;8.50;;